Main page
METAR-TAF:

METAR-TAF

Airports :

Lleida-Alguaire

Lleida, Spain

latitude: 41-43-40N, longitude: 000-32-09E, elevation: 350 m

Current weather observation

The report was made 36 minutes ago, at 01:00 UTC
Wind 8 kt from the East
Temperature 24°C
Humidity 47%
Pressure 1017 hPa
Visibility 10 km or more
no clouds below 1500 m and no cumulonimbus

METAR: LEDA 220100Z AUTO 08008KT CAVOK 24/12 Q1017

Time: 03:36 (01:36 UTC)


TAF: missing

Weather observations and forecasts of more than 4000 airports (METAR and TAF reports).

The available stations are represented by yellow and red dots on the map.

Hover mouse over dot to see the name of the station.

Then click to see weather observations and forecasts.

To change the map : click on the green buttons with a black cross to zoom in, on the green button with a dash to zoom out, or on the green arrows for adjacent maps.


METAR-TAF: